Terminal Aerodrome Forecast
Issued by NWS Cleveland, OH

Home | Current Version | Previous Version | Graphics & Text | Print | Product List | Glossary Off
Versions: 1 2 3 4 5 6 7 8 9 10 11 12 13 14 15 16 17 18 19 20

292
FTUS41 KCLE 032335
TAFTOL
TAF
KTOL 032335Z 0400/0424 23008KT P6SM BKN080
     FM040400 21006KT P6SM SCT040 OVC080
     FM041500 21010KT 5SM -SHRA OVC025
     FM042000 26012KT 3SM -SHRA BR SCT008 OVC012=

USA.gov is the U.S. government's official web portal to all federal, state and local government web resources and services.